createdAt,value
2023-05-20T00:02:09.105Z,99235.16
2023-05-20T00:05:12.203Z,99240.56
2023-05-20T00:08:14.069Z,99230.88
2023-05-20T00:11:15.872Z,99232.84
2023-05-20T00:14:17.678Z,99225.75
2023-05-20T00:17:19.449Z,99224.66
2023-05-20T00:20:22.494Z,99223.66
2023-05-20T00:23:24.312Z,99222.06
2023-05-20T00:26:26.731Z,99219.53
2023-05-20T00:29:31.034Z,99220.53
2023-05-20T00:32:32.861Z,99225.09
2023-05-20T00:35:36.865Z,99222.56
2023-05-20T00:38:38.688Z,99229.78
2023-05-20T00:41:40.988Z,99222.75
2023-05-20T00:44:42.739Z,99231.94
2023-05-20T00:47:44.566Z,99227.06
2023-05-20T00:50:48.104Z,99226.44
2023-05-20T00:53:50.617Z,99225.56
2023-05-20T00:56:52.462Z,99228.25
2023-05-20T00:59:54.275Z,99229.41
2023-05-20T01:02:57.001Z,99226.72
2023-05-20T01:06:01.217Z,99229.41
2023-05-20T01:09:03.321Z,99230.31
2023-05-20T01:12:09.372Z,99229.59
2023-05-20T01:15:12.292Z,99219.19
2023-05-20T01:18:18.579Z,99212.38
2023-05-20T01:21:22.243Z,99216.03
2023-05-20T01:24:25.720Z,99212.50
2023-05-20T01:27:27.569Z,99213.38
2023-05-20T01:30:30.832Z,99206.47
2023-05-20T01:33:36.057Z,99217.16
2023-05-20T01:36:38.922Z,99208.44
2023-05-20T01:39:42.769Z,99200.44
2023-05-20T01:42:46.078Z,99196.78
2023-05-20T01:45:48.229Z,99201.19
2023-05-20T01:48:52.661Z,99196.72
2023-05-20T01:51:54.765Z,99200.38
2023-05-20T01:54:58.608Z,99192.59
2023-05-20T01:58:00.291Z,99185.41
2023-05-20T02:01:02.585Z,99185.41
2023-05-20T02:04:05.990Z,99179.19
2023-05-20T02:07:08.107Z,99185.31
2023-05-20T02:10:13.969Z,99181.78
2023-05-20T02:13:17.514Z,99177.47
2023-05-20T02:16:19.609Z,99177.56
2023-05-20T02:19:23.971Z,99181.97
2023-05-20T02:22:26.107Z,99177.63
2023-05-20T02:25:29.242Z,99175.97
2023-05-20T02:28:31.097Z,99176.91
2023-05-20T02:31:33.165Z,99180.50
2023-05-20T02:34:38.008Z,99175.25
2023-05-20T02:37:40.391Z,99172.69
2023-05-20T02:40:45.446Z,99182.56
2023-05-20T02:43:47.526Z,99178.16
2023-05-20T02:46:49.291Z,99178.16
2023-05-20T02:49:51.208Z,99176.56
2023-05-20T02:52:53.001Z,99181.94
2023-05-20T02:55:56.248Z,99169.41
2023-05-20T02:58:58.038Z,99172.03
2023-05-20T03:02:00.045Z,99173.88
2023-05-20T03:05:02.590Z,99173.13
2023-05-20T03:08:04.631Z,99170.53
2023-05-20T03:11:07.689Z,99174.94
2023-05-20T03:14:09.477Z,99170.56
2023-05-20T03:17:11.727Z,99177.66
2023-05-20T03:20:13.615Z,99172.41
2023-05-20T03:23:16.106Z,99167.13
2023-05-20T03:26:19.520Z,99169.88
2023-05-20T03:29:22.728Z,99164.66
2023-05-20T03:32:24.754Z,99178.84
2023-05-20T03:35:26.711Z,99180.63
2023-05-20T03:38:29.604Z,99183.25
2023-05-20T03:41:32.732Z,99175.41
2023-05-20T03:44:34.544Z,99176.38
2023-05-20T03:47:37.381Z,99176.44
2023-05-20T03:50:39.175Z,99173.78
2023-05-20T03:53:41.058Z,99170.19
2023-05-20T03:56:47.070Z,99173.66
2023-05-20T03:59:49.170Z,99177.47
2023-05-20T04:02:51.507Z,99178.22
2023-05-20T04:05:54.259Z,99174.59
2023-05-20T04:08:57.569Z,99177.31
2023-05-20T04:12:03.765Z,99174.66
2023-05-20T04:15:06.835Z,99170.06
2023-05-20T04:18:16.765Z,99166.53
2023-05-20T04:21:19.473Z,99173.59
2023-05-20T04:24:25.257Z,99169.19
2023-05-20T04:27:28.901Z,99169.31
2023-05-20T04:30:33.483Z,99162.31
2023-05-20T04:33:38.154Z,99165.03
2023-05-20T04:36:40.943Z,99157.94
2023-05-20T04:39:43.891Z,99155.16
2023-05-20T04:42:51.138Z,99156.03
2023-05-20T04:45:55.895Z,99155.00
2023-05-20T04:48:58.029Z,99157.59
2023-05-20T04:52:00.922Z,99156.59
2023-05-20T04:55:03.095Z,99146.63
2023-05-20T04:58:08.282Z,99147.00
2023-05-20T05:01:10.576Z,99151.94
2023-05-20T05:04:12.461Z,99159.44
2023-05-20T05:07:14.297Z,99162.69
2023-05-20T05:10:16.445Z,99161.63
2023-05-20T05:13:19.821Z,99161.50
2023-05-20T05:16:23.417Z,99152.81
2023-05-20T05:19:25.422Z,99157.28
2023-05-20T05:22:27.335Z,99152.88
2023-05-20T05:25:29.152Z,99155.47
2023-05-20T05:28:34.830Z,99153.78
2023-05-20T05:31:36.595Z,99155.59
2023-05-20T05:34:38.453Z,99156.34
2023-05-20T05:37:40.263Z,99162.47
2023-05-20T05:40:42.905Z,99152.75
2023-05-20T05:43:46.059Z,99151.75
2023-05-20T05:46:48.039Z,99153.44
2023-05-20T05:49:49.889Z,99146.19
2023-05-20T05:52:51.810Z,99147.81
2023-05-20T05:55:53.597Z,99140.50
2023-05-20T05:58:56.927Z,99147.78
2023-05-20T06:01:59.360Z,99151.28
2023-05-20T06:05:01.362Z,99147.75
2023-05-20T06:08:03.134Z,99149.63
2023-05-20T06:11:07.544Z,99149.59
2023-05-20T06:14:11.155Z,99157.84
2023-05-20T06:17:13.057Z,99157.38
2023-05-20T06:20:15.451Z,99154.13
2023-05-20T06:23:18.437Z,99148.50
2023-05-20T06:26:27.973Z,99157.09
2023-05-20T06:29:31.190Z,99157.50
2023-05-20T06:32:32.986Z,99160.78
2023-05-20T06:35:35.934Z,99157.00
2023-05-20T06:38:39.492Z,99146.50
2023-05-20T06:41:41.851Z,99152.63
2023-05-20T06:44:46.487Z,99145.09
2023-05-20T06:47:54.930Z,99146.38
2023-05-20T06:50:57.093Z,99144.22
2023-05-20T06:53:59.088Z,99137.63
2023-05-20T06:57:01.380Z,99136.75
2023-05-20T07:00:06.062Z,99137.31
2023-05-20T07:03:12.447Z,99142.22
2023-05-20T07:06:15.000Z,99140.50
2023-05-20T07:09:17.145Z,99137.75
2023-05-20T07:12:21.084Z,99121.13
2023-05-20T07:15:24.225Z,99119.59
2023-05-20T07:18:26.107Z,99118.44
2023-05-20T07:21:29.523Z,99120.22
2023-05-20T07:24:43.617Z,99123.41
2023-05-20T07:27:46.383Z,99118.84
2023-05-20T07:30:50.555Z,99121.66
2023-05-20T07:33:59.623Z,99114.00
2023-05-20T07:37:01.513Z,99119.75
2023-05-20T07:40:03.860Z,99107.28
2023-05-20T07:43:06.197Z,99106.81
2023-05-20T07:46:09.746Z,99109.19
2023-05-20T07:49:12.202Z,99102.13
2023-05-20T07:52:15.047Z,99108.94
2023-05-20T07:55:18.732Z,99098.81
2023-05-20T07:58:21.863Z,99088.72
2023-05-20T08:01:27.024Z,99100.63
2023-05-20T08:04:30.032Z,99106.28
2023-05-20T08:07:32.399Z,99101.00
2023-05-20T08:10:34.321Z,99108.88
2023-05-20T08:13:36.547Z,99100.44
2023-05-20T08:16:42.111Z,99105.16
2023-05-20T08:19:44.179Z,99101.72
2023-05-20T08:22:48.842Z,99098.75
2023-05-20T08:25:50.954Z,99080.97
2023-05-20T08:28:55.388Z,99098.81
2023-05-20T08:32:00.803Z,99090.13
2023-05-20T08:35:02.868Z,99094.31
2023-05-20T08:38:05.227Z,99089.47
2023-05-20T08:41:07.051Z,99094.84
2023-05-20T08:44:11.801Z,99086.66
2023-05-20T08:47:16.486Z,99084.44
2023-05-20T08:50:18.952Z,99089.56
2023-05-20T08:53:23.092Z,99079.81
2023-05-20T08:56:29.999Z,99077.22
2023-05-20T08:59:34.980Z,99085.69
2023-05-20T09:02:38.775Z,99083.38
2023-05-20T09:05:40.861Z,99090.25
2023-05-20T09:08:43.041Z,99078.03
2023-05-20T09:11:45.202Z,99074.72
2023-05-20T09:14:47.148Z,99079.81
2023-05-20T09:17:50.823Z,99085.69
2023-05-20T09:20:55.474Z,99081.78
2023-05-20T09:23:59.325Z,99086.25
2023-05-20T09:27:01.359Z,99081.41
2023-05-20T09:30:07.417Z,99086.63
2023-05-20T09:33:11.615Z,99081.00
2023-05-20T09:36:16.403Z,99078.03
2023-05-20T09:39:22.786Z,99082.94
2023-05-20T09:42:28.720Z,99074.31
2023-05-20T09:45:32.071Z,99077.72
2023-05-20T09:48:39.940Z,99078.53
2023-05-20T09:51:42.108Z,99079.13
2023-05-20T09:54:44.715Z,99072.94
2023-05-20T09:57:47.456Z,99078.38
2023-05-20T10:00:49.534Z,99080.50
2023-05-20T10:03:53.707Z,99079.84
2023-05-20T10:07:33.961Z,99074.03
2023-05-20T10:10:46.290Z,99070.63
2023-05-20T10:13:56.377Z,99074.34
2023-05-20T10:17:02.626Z,99068.66
2023-05-20T10:20:09.225Z,99075.69
2023-05-20T10:23:20.724Z,99074.38
2023-05-20T10:26:22.718Z,99073.84
2023-05-20T10:29:24.802Z,99077.84
2023-05-20T10:32:27.686Z,99081.13
2023-05-20T10:35:31.341Z,99077.66
2023-05-20T10:38:33.175Z,99076.31
2023-05-20T10:41:34.950Z,99078.97
2023-05-20T10:44:44.097Z,99074.84
2023-05-20T10:47:55.272Z,99057.78
2023-05-20T10:51:00.014Z,99071.78
2023-05-20T10:54:03.391Z,99053.16
2023-05-20T10:57:07.464Z,99057.25
2023-05-20T11:00:10.881Z,99050.34
2023-05-20T11:03:14.704Z,99050.34
2023-05-20T11:06:19.068Z,99053.81
2023-05-20T11:09:21.269Z,99042.94
2023-05-20T11:12:23.911Z,99043.16
2023-05-20T11:15:26.144Z,99038.66
2023-05-20T11:18:31.083Z,99035.22
2023-05-20T11:21:34.264Z,99030.50
2023-05-20T11:24:40.531Z,99032.50
2023-05-20T11:27:43.168Z,99022.81
2023-05-20T11:30:45.029Z,99038.19
2023-05-20T11:33:46.871Z,99025.75
2023-05-20T11:36:56.636Z,99015.50
2023-05-20T11:40:08.962Z,99022.50
2023-05-20T11:43:12.432Z,99017.56
2023-05-20T11:46:14.838Z,99026.91
2023-05-20T11:49:17.414Z,99014.03
2023-05-20T11:52:23.685Z,99010.56
2023-05-20T11:55:25.705Z,99002.88
2023-05-20T11:58:32.567Z,98999.31
2023-05-20T12:01:42.999Z,98995.13
2023-05-20T12:04:44.954Z,98992.47
2023-05-20T12:07:48.132Z,98991.47
2023-05-20T12:10:50.027Z,98995.50
2023-05-20T12:13:52.260Z,98982.53
2023-05-20T12:16:54.038Z,98975.53
2023-05-20T12:19:55.787Z,98974.19
2023-05-20T12:22:59.998Z,98971.06
2023-05-20T12:26:01.897Z,98971.97
2023-05-20T12:29:03.773Z,98983.28
2023-05-20T12:32:06.134Z,98978.25
2023-05-20T12:35:08.488Z,98974.72
2023-05-20T12:38:11.730Z,98977.00
2023-05-20T12:41:13.485Z,98960.56
2023-05-20T12:44:15.331Z,98967.88
2023-05-20T12:47:17.214Z,98968.94
2023-05-20T12:50:21.611Z,98970.41
2023-05-20T12:53:25.730Z,98975.38
2023-05-20T12:56:27.930Z,98981.19
2023-05-20T12:59:29.913Z,98964.31
2023-05-20T13:02:31.836Z,98958.50
2023-05-20T13:05:33.629Z,98945.88
2023-05-20T13:08:37.131Z,98940.66
2023-05-20T13:11:38.939Z,98939.25
2023-05-20T13:14:41.836Z,98939.25
2023-05-20T13:17:44.170Z,98948.66
2023-05-20T13:20:46.942Z,98942.56
2023-05-20T13:23:50.508Z,98944.63
2023-05-20T13:26:52.285Z,98938.31
2023-05-20T13:29:54.230Z,98943.72
2023-05-20T13:32:57.312Z,98938.53
2023-05-20T13:35:59.370Z,98933.94
2023-05-20T13:39:02.840Z,98924.69
2023-05-20T13:42:05.472Z,98929.56
2023-05-20T13:45:07.956Z,98923.16
2023-05-20T13:48:11.324Z,98925.69
2023-05-20T13:51:13.251Z,98926.16
2023-05-20T13:54:16.840Z,98912.91
2023-05-20T13:57:21.333Z,98916.81
2023-05-20T14:00:23.154Z,98907.50
2023-05-20T14:03:24.935Z,98905.34
2023-05-20T14:06:26.832Z,98907.66
2023-05-20T14:09:30.543Z,98897.88
2023-05-20T14:12:32.378Z,98901.78
2023-05-20T14:15:34.147Z,98902.78
2023-05-20T14:18:36.076Z,98905.59
2023-05-20T14:21:38.332Z,98902.31
2023-05-20T14:24:41.524Z,98904.59
2023-05-20T14:27:45.280Z,98898.28
2023-05-20T14:30:47.303Z,98900.25
2023-05-20T14:33:49.516Z,98893.34
2023-05-20T14:36:51.256Z,98889.59
2023-05-20T14:39:54.638Z,98885.09
2023-05-20T14:42:56.529Z,98892.59
2023-05-20T14:45:58.498Z,98889.31
2023-05-20T14:49:00.249Z,98896.78
2023-05-20T14:52:02.094Z,98887.09
2023-05-20T14:55:05.969Z,98899.13
2023-05-20T14:58:07.730Z,98895.06
2023-05-20T15:01:09.513Z,98897.19
2023-05-20T15:04:11.542Z,98899.88
2023-05-20T15:07:13.414Z,98894.75
2023-05-20T15:10:16.711Z,98892.78
2023-05-20T15:13:18.642Z,98888.44
2023-05-20T15:16:24.208Z,98893.03
2023-05-20T15:19:26.179Z,98889.28
2023-05-20T15:22:28.102Z,98891.22
2023-05-20T15:25:31.200Z,98893.50
2023-05-20T15:28:33.015Z,98903.66
2023-05-20T15:31:34.787Z,98892.25
2023-05-20T15:34:37.946Z,98880.31
2023-05-20T15:37:44.716Z,98875.53
2023-05-20T15:40:50.401Z,98877.94
2023-05-20T15:43:52.309Z,98864.41
2023-05-20T15:46:54.110Z,98867.00
2023-05-20T15:49:57.480Z,98870.19
2023-05-20T15:52:59.336Z,98869.25
2023-05-20T15:56:02.527Z,98870.91
2023-05-20T15:59:04.334Z,98873.91
2023-05-20T16:02:06.814Z,98869.06
2023-05-20T16:05:08.694Z,98867.53
2023-05-20T16:08:10.504Z,98865.91
2023-05-20T16:11:13.703Z,98869.63
2023-05-20T16:14:15.601Z,98860.88
2023-05-20T16:17:21.137Z,98861.56
2023-05-20T16:20:22.974Z,98855.69
2023-05-20T16:23:24.940Z,98859.34
2023-05-20T16:26:43.321Z,98849.47
2023-05-20T16:29:45.245Z,98850.41
2023-05-20T16:32:47.194Z,98843.13
2023-05-20T16:35:49.194Z,98844.66
2023-05-20T16:38:51.053Z,98842.84
2023-05-20T16:41:54.268Z,98839.41
2023-05-20T16:44:56.024Z,98848.41
2023-05-20T16:47:58.809Z,98843.03
2023-05-20T16:51:00.902Z,98835.75
2023-05-20T16:54:02.777Z,98841.78
2023-05-20T16:57:06.856Z,98825.59
2023-05-20T17:00:09.700Z,98832.28
2023-05-20T17:03:12.370Z,98834.44
2023-05-20T17:06:14.578Z,98826.38
2023-05-20T17:09:16.740Z,98830.13
2023-05-20T17:12:20.115Z,98834.63
2023-05-20T17:15:23.699Z,98844.41
2023-05-20T17:18:25.870Z,98840.69
2023-05-20T17:21:27.818Z,98837.50
2023-05-20T17:24:30.289Z,98837.59
2023-05-20T17:27:33.718Z,98825.03
2023-05-20T17:30:35.763Z,98831.09
2023-05-20T17:33:38.778Z,98817.75
2023-05-20T17:36:40.964Z,98832.91
2023-05-20T17:39:43.451Z,98826.75
2023-05-20T17:42:48.512Z,98829.34
2023-05-20T17:45:50.446Z,98831.44
2023-05-20T17:48:52.543Z,98842.19
2023-05-20T17:51:54.618Z,98837.84
2023-05-20T17:54:56.840Z,98839.44
2023-05-20T17:58:01.883Z,98836.81
2023-05-20T18:01:04.066Z,98833.53
2023-05-20T18:04:06.415Z,98839.88
2023-05-20T18:07:08.641Z,98841.84
2023-05-20T18:10:10.775Z,98841.84
2023-05-20T18:13:14.259Z,98835.72
2023-05-20T18:16:16.871Z,98833.22
2023-05-20T18:19:18.896Z,98836.94
2023-05-20T18:22:21.031Z,98829.16
2023-05-20T18:25:23.050Z,98834.91
2023-05-20T18:28:26.395Z,98836.19
2023-05-20T18:31:28.404Z,98840.88
2023-05-20T18:34:32.531Z,98840.28
2023-05-20T18:37:34.592Z,98843.22
2023-05-20T18:40:36.696Z,98846.88
2023-05-20T18:43:40.322Z,98845.22
2023-05-20T18:46:42.412Z,98842.69
2023-05-20T18:49:44.660Z,98839.34
2023-05-20T18:52:46.579Z,98835.88
2023-05-20T18:55:48.678Z,98834.50
2023-05-20T18:58:51.883Z,98836.56
2023-05-20T19:01:53.871Z,98833.03
2023-05-20T19:04:56.201Z,98837.53
2023-05-20T19:07:58.321Z,98849.38
2023-05-20T19:11:00.522Z,98841.50
2023-05-20T19:14:06.429Z,98840.72
2023-05-20T19:17:08.399Z,98838.19
2023-05-20T19:20:10.662Z,98833.09
2023-05-20T19:23:12.390Z,98834.22
2023-05-20T19:26:14.404Z,98838.72
2023-05-20T19:29:17.981Z,98846.91
2023-05-20T19:32:19.751Z,98842.69
2023-05-20T19:35:21.726Z,98847.28
2023-05-20T19:38:23.736Z,98847.41
2023-05-20T19:41:26.138Z,98845.88
2023-05-20T19:44:29.543Z,98840.81
2023-05-20T19:47:31.594Z,98844.44
2023-05-20T19:50:34.213Z,98845.28
2023-05-20T19:53:37.073Z,98849.00
2023-05-20T19:56:39.039Z,98844.59
2023-05-20T19:59:42.429Z,98845.56
2023-05-20T20:02:44.378Z,98843.75
2023-05-20T20:05:46.463Z,98839.34
2023-05-20T20:08:48.635Z,98832.31
2023-05-20T20:11:50.948Z,98831.59
2023-05-20T20:14:54.666Z,98835.09
2023-05-20T20:17:57.212Z,98837.88
2023-05-20T20:21:06.022Z,98823.66
2023-05-20T20:24:10.795Z,98829.00
2023-05-20T20:27:15.626Z,98824.47
2023-05-20T20:30:22.640Z,98817.34
2023-05-20T20:33:24.555Z,98820.66
2023-05-20T20:36:31.852Z,98819.53
2023-05-20T20:39:36.268Z,98815.75
2023-05-20T20:42:38.655Z,98818.25
2023-05-20T20:45:42.876Z,98821.66
2023-05-20T20:48:48.088Z,98811.66
2023-05-20T20:51:50.694Z,98807.84
2023-05-20T20:54:53.315Z,98811.38
2023-05-20T20:57:56.778Z,98816.66
2023-05-20T21:01:00.255Z,98814.75
2023-05-20T21:04:03.469Z,98815.59
2023-05-20T21:07:05.805Z,98804.88
2023-05-20T21:10:08.911Z,98803.16
2023-05-20T21:13:11.392Z,98804.88
2023-05-20T21:16:15.265Z,98802.19
2023-05-20T21:19:17.629Z,98807.66
2023-05-20T21:22:20.040Z,98796.06
2023-05-20T21:25:22.269Z,98794.25
2023-05-20T21:28:24.559Z,98791.66
2023-05-20T21:31:28.156Z,98788.97
2023-05-20T21:34:30.365Z,98784.56
2023-05-20T21:37:32.475Z,98784.66
2023-05-20T21:40:34.757Z,98782.16
2023-05-20T21:43:37.481Z,98784.03
2023-05-20T21:46:40.958Z,98776.31
2023-05-20T21:49:43.177Z,98775.53
2023-05-20T21:52:45.463Z,98772.88
2023-05-20T21:55:47.789Z,98768.50
2023-05-20T21:58:49.871Z,98768.59
2023-05-20T22:01:56.962Z,98771.66
2023-05-20T22:05:01.288Z,98765.41
2023-05-20T22:08:04.809Z,98767.81
2023-05-20T22:11:08.102Z,98761.59
2023-05-20T22:14:09.980Z,98758.06
2023-05-20T22:17:14.025Z,98762.56
2023-05-20T22:20:16.481Z,98752.78
2023-05-20T22:23:18.606Z,98751.22
2023-05-20T22:26:21.524Z,98746.03
2023-05-20T22:29:23.694Z,98739.81
2023-05-20T22:32:27.320Z,98732.53
2023-05-20T22:35:31.531Z,98735.50
2023-05-20T22:38:35.968Z,98728.66
2023-05-20T22:41:38.194Z,98718.09
2023-05-20T22:44:41.114Z,98720.09
2023-05-20T22:47:44.984Z,98713.09
2023-05-20T22:50:48.370Z,98712.28
2023-05-20T22:53:50.454Z,98709.88
2023-05-20T22:57:00.006Z,98701.06
2023-05-20T23:00:03.337Z,98699.59
2023-05-20T23:03:08.124Z,98704.00
2023-05-20T23:06:12.856Z,98703.84
2023-05-20T23:09:14.952Z,98698.53
2023-05-20T23:12:17.421Z,98693.34
2023-05-20T23:15:19.340Z,98699.84
2023-05-20T23:18:23.540Z,98684.63
2023-05-20T23:21:28.002Z,98685.50
2023-05-20T23:24:30.291Z,98678.50
2023-05-20T23:27:32.586Z,98683.00
2023-05-20T23:30:34.658Z,98680.38
2023-05-20T23:33:38.298Z,98679.59
2023-05-20T23:36:42.220Z,98675.28
2023-05-20T23:39:44.493Z,98673.66
2023-05-20T23:42:46.420Z,98670.19
2023-05-20T23:45:48.445Z,98662.31
2023-05-20T23:48:51.757Z,98660.75
2023-05-20T23:51:53.886Z,98663.69
2023-05-20T23:54:56.706Z,98663.94
2023-05-20T23:57:59.261Z,98654.16
